Time;durP1;ratioP1;P1;durP2;ratioP2;P2;SDS_P1;SDS_P2;PMS_P1;PMS_P2;Temp;Humidity;BMP_temperature;BMP_pressure;BME280_temperature;BME280_humidity;BME280_pressure;Samples;Min_cycle;Max_cycle;Signal;HPM_P1;HPM_P2
2022/09/20 00:01:22;;;;;;;1.70;0.30;;;8.50;99.90;;;;;;5014601;28;20417;-88
2022/09/20 00:03:56;;;;;;;1.20;0.30;;;8.40;99.90;;;;;;5014339;28;20173;-89
2022/09/20 00:06:25;;;;;;;1.80;0.50;;;8.40;99.90;;;;;;5014481;28;20420;-86
2022/09/20 00:08:51;;;;;;;1.00;0.20;;;8.40;99.90;;;;;;5014876;28;20450;-89
2022/09/20 00:11:25;;;;;;;1.73;0.40;;;8.40;99.90;;;;;;5014843;28;20533;-88
2022/09/20 00:13:54;;;;;;;1.33;0.20;;;8.40;99.90;;;;;;5009732;28;20417;-89
2022/09/20 00:16:26;;;;;;;2.37;0.40;;;8.40;99.90;;;;;;5014738;28;20472;-91
2022/09/20 00:18:54;;;;;;;1.73;0.53;;;8.50;99.90;;;;;;5015306;28;20759;-86
2022/09/20 00:21:23;;;;;;;4.10;0.40;;;8.50;99.90;;;;;;5013970;28;20966;-89
2022/09/20 00:23:49;;;;;;;1.93;0.50;;;8.50;99.90;;;;;;5014844;28;20418;-89
2022/09/20 00:26:14;;;;;;;1.90;0.30;;;8.50;99.90;;;;;;5013633;28;20778;-87
2022/09/20 00:28:40;;;;;;;3.90;0.50;;;8.50;99.90;;;;;;5014350;28;20273;-88
2022/09/20 00:31:06;;;;;;;3.70;0.70;;;8.50;99.90;;;;;;5013789;28;20235;-88
2022/09/20 00:36:17;;;;;;;1.40;0.20;;;8.50;99.90;;;;;;5014932;28;20415;-89
2022/09/20 00:38:42;;;;;;;3.23;0.30;;;8.40;99.90;;;;;;5006717;28;20414;-88
2022/09/20 00:41:08;;;;;;;4.00;0.40;;;8.40;99.90;;;;;;5013533;28;20242;-88
2022/09/20 00:43:42;;;;;;;2.13;0.30;;;8.50;99.90;;;;;;5013955;28;20219;-89
2022/09/20 00:46:33;;;;;;;1.17;0.30;;;8.40;99.90;;;;;;5014582;28;20178;-86
2022/09/20 00:49:07;;;;;;;2.73;0.30;;;8.40;99.90;;;;;;5014269;28;20427;-89
2022/09/20 00:51:37;;;;;;;5.97;0.30;;;8.40;99.90;;;;;;5012187;28;20509;-87
2022/09/20 00:54:05;;;;;;;1.37;0.20;;;8.40;99.90;;;;;;5009827;28;20435;-88
2022/09/20 00:56:34;;;;;;;2.60;0.20;;;8.40;99.90;;;;;;5014309;28;20919;-85
2022/09/20 00:59:14;;;;;;;2.20;0.40;;;8.40;99.90;;;;;;5013486;28;20402;-88
2022/09/20 01:01:41;;;;;;;2.83;0.47;;;8.30;99.90;;;;;;5013362;28;20916;-88
2022/09/20 01:04:07;;;;;;;1.23;0.67;;;8.30;99.90;;;;;;5011974;28;20931;-87
2022/09/20 01:06:33;;;;;;;1.43;0.20;;;8.40;99.90;;;;;;5012899;28;20406;-86
2022/09/20 01:09:02;;;;;;;2.50;0.30;;;8.40;99.90;;;;;;5013178;28;20423;-84
2022/09/20 01:11:29;;;;;;;4.27;0.60;;;8.30;99.90;;;;;;5013141;28;20426;-86
2022/09/20 01:13:57;;;;;;;1.10;0.40;;;8.40;99.90;;;;;;5013725;28;20963;-88
2022/09/20 01:16:24;;;;;;;1.10;0.37;;;8.40;99.90;;;;;;5011523;28;20835;-89
2022/09/20 01:18:51;;;;;;;1.87;0.30;;;8.40;99.90;;;;;;5012844;28;20512;-89
2022/09/20 01:21:18;;;;;;;2.80;0.50;;;8.40;99.90;;;;;;5013289;28;21141;-89
2022/09/20 01:23:50;;;;;;;3.43;0.77;;;8.30;99.90;;;;;;5009742;28;20786;-90
2022/09/20 01:26:30;;;;;;;2.63;0.40;;;8.30;99.90;;;;;;5013253;28;20414;-83
2022/09/20 01:29:07;;;;;;;4.17;0.70;;;8.30;99.90;;;;;;5013342;28;20517;-83
2022/09/20 01:31:37;;;;;;;1.77;0.20;;;8.30;99.90;;;;;;5013266;28;20414;-83
2022/09/20 01:34:10;;;;;;;1.00;0.37;;;8.30;99.90;;;;;;5013249;28;20472;-83
2022/09/20 01:36:46;;;;;;;5.53;0.60;;;8.30;99.90;;;;;;5013294;28;20452;-84
2022/09/20 01:39:24;;;;;;;4.60;0.90;;;8.30;99.90;;;;;;5013178;28;20541;-84
2022/09/20 01:42:04;;;;;;;4.83;0.53;;;8.20;99.90;;;;;;5012805;28;20450;-84
2022/09/20 01:45:09;;;;;;;2.97;0.60;;;8.20;99.90;;;;;;5011626;28;20567;-84
2022/09/20 01:47:49;;;;;;;6.73;0.80;;;8.10;99.90;;;;;;5012984;28;20457;-86
2022/09/20 01:50:31;;;;;;;1.17;0.40;;;8.10;99.90;;;;;;5013239;28;20489;-86
2022/09/20 01:53:14;;;;;;;2.80;0.47;;;8.10;99.90;;;;;;5019421;28;20410;-91
2022/09/20 01:56:15;;;;;;;2.10;0.57;;;8.00;99.90;;;;;;5019813;28;20512;-90
2022/09/20 01:59:18;;;;;;;4.30;1.10;;;8.00;99.90;;;;;;4997211;28;20448;-89
2022/09/20 02:02:04;;;;;;;3.40;0.60;;;7.90;99.90;;;;;;5018633;28;20843;-87
2022/09/20 02:05:09;;;;;;;2.30;0.30;;;7.90;99.90;;;;;;5017156;28;20429;-87
2022/09/20 02:08:00;;;;;;;3.13;0.30;;;7.90;99.90;;;;;;5018251;28;20472;-90
2022/09/20 02:11:07;;;;;;;2.03;0.40;;;7.80;99.90;;;;;;5018413;28;20506;-91
2022/09/20 02:14:08;;;;;;;1.60;0.70;;;7.80;99.90;;;;;;5004837;28;20418;-89
2022/09/20 02:16:33;;;;;;;1.97;0.27;;;7.70;99.90;;;;;;5017901;28;20925;-88
2022/09/20 02:19:31;;;;;;;2.50;0.43;;;7.70;99.90;;;;;;5017179;28;20427;-89
2022/09/20 02:22:19;;;;;;;2.13;0.37;;;7.60;99.90;;;;;;5026674;28;20175;-86
2022/09/20 02:25:16;;;;;;;2.10;0.37;;;7.50;99.90;;;;;;5018071;28;20469;-87
2022/09/20 02:28:20;;;;;;;3.10;0.60;;;7.60;99.90;;;;;;5017093;28;20503;-89
2022/09/20 02:31:14;;;;;;;1.77;0.27;;;7.60;99.90;;;;;;5016286;28;20466;-85
2022/09/20 02:34:03;;;;;;;1.87;0.60;;;7.60;99.90;;;;;;5014250;28;20778;-86
2022/09/20 02:36:49;;;;;;;3.63;0.40;;;7.60;99.90;;;;;;5015628;28;20803;-87
2022/09/20 02:39:20;;;;;;;2.40;0.50;;;7.60;99.90;;;;;;5014528;28;20441;-87
2022/09/20 02:42:00;;;;;;;4.00;0.37;;;7.70;99.90;;;;;;5015730;28;20416;-86
2022/09/20 02:44:40;;;;;;;1.07;0.33;;;7.70;99.90;;;;;;5014789;28;20522;-84
2022/09/20 02:47:36;;;;;;;2.60;0.63;;;7.70;99.90;;;;;;5016189;28;20472;-87
2022/09/20 02:50:31;;;;;;;0.83;0.30;;;7.60;99.90;;;;;;5017778;28;20488;-87
2022/09/20 02:53:31;;;;;;;2.60;0.30;;;7.50;99.90;;;;;;5023077;28;20940;-88
2022/09/20 02:56:02;;;;;;;2.57;1.17;;;7.50;99.90;;;;;;5015909;28;20626;-88
2022/09/20 02:58:56;;;;;;;1.20;0.40;;;7.40;99.90;;;;;;5014837;28;20486;-87
2022/09/20 03:01:42;;;;;;;2.97;0.20;;;7.40;99.90;;;;;;5014842;28;20925;-86
2022/09/20 03:04:19;;;;;;;3.20;0.50;;;7.40;99.90;;;;;;5013749;28;20922;-85
2022/09/20 03:07:23;;;;;;;1.80;0.40;;;7.40;99.90;;;;;;5014892;28;20750;-88
2022/09/20 03:10:27;;;;;;;2.10;0.80;;;7.40;99.90;;;;;;5016153;28;20412;-88
2022/09/20 03:13:20;;;;;;;1.27;0.40;;;7.40;99.90;;;;;;5014814;28;20511;-89
2022/09/20 03:16:11;;;;;;;1.30;0.57;;;7.50;99.90;;;;;;5016484;28;20420;-91
2022/09/20 03:18:46;;;;;;;1.23;0.30;;;7.50;99.90;;;;;;5014918;28;20886;-91
2022/09/20 03:21:28;;;;;;;1.80;0.90;;;7.50;99.90;;;;;;5016343;28;20496;-92
2022/09/20 03:24:26;;;;;;;3.23;0.67;;;7.50;99.90;;;;;;5016233;28;20453;-90
2022/09/20 03:27:06;;;;;;;1.13;0.30;;;7.60;99.90;;;;;;4982003;28;20458;-86
2022/09/20 03:29:54;;;;;;;2.00;0.47;;;7.60;99.90;;;;;;5015876;28;20817;-87
2022/09/20 03:33:00;;;;;;;1.30;0.40;;;7.60;99.90;;;;;;5015663;28;20842;-89
2022/09/20 03:35:52;;;;;;;1.50;0.77;;;7.60;99.90;;;;;;5014311;28;20425;-86
2022/09/20 03:38:58;;;;;;;1.27;0.50;;;7.50;99.90;;;;;;5015383;28;20491;-86
2022/09/20 03:41:44;;;;;;;0.90;0.40;;;7.40;99.90;;;;;;5013569;28;20455;-88
2022/09/20 03:44:47;;;;;;;2.40;0.40;;;7.40;99.90;;;;;;5014945;28;20456;-86
2022/09/20 03:47:35;;;;;;;2.07;0.60;;;7.30;99.90;;;;;;5015340;28;20846;-86
2022/09/20 03:50:34;;;;;;;2.33;0.50;;;7.20;99.90;;;;;;5014290;28;20460;-89
2022/09/20 03:53:22;;;;;;;1.23;0.50;;;7.20;99.90;;;;;;5015682;28;20775;-87
2022/09/20 03:56:10;;;;;;;1.13;0.50;;;7.10;99.90;;;;;;5015016;28;21052;-88
2022/09/20 03:58:53;;;;;;;1.03;0.50;;;7.00;99.90;;;;;;5015499;28;20412;-89
2022/09/20 04:01:33;;;;;;;1.63;0.20;;;6.90;99.90;;;;;;5014185;28;20434;-86
2022/09/20 04:04:11;;;;;;;2.77;0.40;;;6.90;99.90;;;;;;5015230;28;20918;-92
2022/09/20 04:06:47;;;;;;;1.00;0.60;;;6.90;99.90;;;;;;5015263;28;20496;-88
2022/09/20 04:09:25;;;;;;;1.90;0.60;;;6.80;99.90;;;;;;5015156;28;20444;-90
2022/09/20 04:12:18;;;;;;;0.97;0.37;;;6.80;99.90;;;;;;5013488;28;20930;-90
2022/09/20 04:15:01;;;;;;;3.60;0.77;;;6.70;99.90;;;;;;5013632;28;20421;-90
2022/09/20 04:17:48;;;;;;;2.10;0.60;;;6.70;99.90;;;;;;5014248;28;20933;-85
2022/09/20 04:20:22;;;;;;;2.50;0.27;;;6.80;99.90;;;;;;5014246;28;20472;-86
2022/09/20 04:22:52;;;;;;;1.83;0.67;;;6.70;99.90;;;;;;5015363;28;20505;-90
2022/09/20 04:25:22;;;;;;;0.93;0.33;;;6.70;99.90;;;;;;5013389;28;20490;-90
2022/09/20 04:27:51;;;;;;;2.10;0.60;;;6.60;99.90;;;;;;5012889;28;20484;-86
2022/09/20 04:30:19;;;;;;;2.00;0.30;;;6.70;99.90;;;;;;5013330;28;20431;-90
2022/09/20 04:33:02;;;;;;;1.50;0.60;;;6.60;99.90;;;;;;5014661;28;20444;-89
2022/09/20 04:38:42;;;;;;;3.10;0.33;;;6.60;99.90;;;;;;5014651;28;20781;-90
2022/09/20 04:41:28;;;;;;;1.70;0.60;;;6.50;99.90;;;;;;5013833;28;20436;-90
2022/09/20 04:44:31;;;;;;;2.53;0.80;;;6.60;99.90;;;;;;5014043;28;20879;-86
2022/09/20 04:47:18;;;;;;;1.73;0.80;;;6.60;99.90;;;;;;5014165;28;20484;-89
2022/09/20 04:50:19;;;;;;;1.07;0.53;;;6.60;99.90;;;;;;5014268;28;20445;-86
2022/09/20 04:53:26;;;;;;;1.30;0.63;;;6.60;99.90;;;;;;5009864;28;20424;-86
2022/09/20 04:56:16;;;;;;;4.73;1.13;;;6.60;99.90;;;;;;5012426;28;20428;-87
2022/09/20 04:59:04;;;;;;;2.47;0.67;;;6.60;99.90;;;;;;5012660;28;20981;-87
2022/09/20 05:02:02;;;;;;;1.50;0.67;;;6.50;99.90;;;;;;5013835;28;20899;-87
2022/09/20 05:05:01;;;;;;;5.30;1.33;;;6.50;99.90;;;;;;5012699;28;20424;-88
2022/09/20 05:08:03;;;;;;;2.67;0.40;;;6.50;99.90;;;;;;5012416;28;20448;-86
2022/09/20 05:10:37;;;;;;;1.13;0.40;;;6.40;99.90;;;;;;5012389;28;20421;-87
2022/09/20 05:13:28;;;;;;;1.60;0.47;;;6.40;99.90;;;;;;5012108;28;20519;-84
2022/09/20 05:16:06;;;;;;;1.00;0.40;;;6.40;99.90;;;;;;5013504;28;20451;-86
2022/09/20 05:19:06;;;;;;;1.00;0.40;;;6.40;99.90;;;;;;5013413;28;20474;-85
2022/09/20 05:21:58;;;;;;;3.50;0.87;;;6.40;99.90;;;;;;5013761;28;20431;-86
2022/09/20 05:25:03;;;;;;;1.17;0.50;;;6.50;99.90;;;;;;5013781;28;20411;-85
2022/09/20 05:27:47;;;;;;;3.27;0.80;;;6.50;99.90;;;;;;5012289;28;20754;-86
2022/09/20 05:30:41;;;;;;;1.53;0.47;;;6.50;99.90;;;;;;5013183;28;20412;-84
2022/09/20 05:33:22;;;;;;;5.60;1.40;;;6.60;99.90;;;;;;5012063;28;20425;-85
2022/09/20 05:36:10;;;;;;;1.13;0.50;;;6.70;99.90;;;;;;5011704;28;20491;-84
2022/09/20 05:39:09;;;;;;;2.53;0.70;;;6.70;99.90;;;;;;5011695;28;20848;-85
2022/09/20 05:41:51;;;;;;;1.77;0.67;;;6.70;99.90;;;;;;4983849;28;20580;-86
2022/09/20 05:44:54;;;;;;;3.17;0.80;;;6.70;99.90;;;;;;5012890;28;20566;-86
2022/09/20 05:47:51;;;;;;;2.97;0.90;;;6.80;99.90;;;;;;5011826;28;20431;-85
2022/09/20 05:50:19;;;;;;;1.83;0.87;;;6.80;99.90;;;;;;5006988;28;20842;-85
2022/09/20 05:53:29;;;;;;;1.17;0.33;;;6.90;99.90;;;;;;5013072;28;20850;-85
2022/09/20 05:56:27;;;;;;;1.63;0.83;;;7.00;99.90;;;;;;4936106;29;20469;-86
2022/09/20 05:59:28;;;;;;;2.70;0.70;;;7.10;99.90;;;;;;5012916;28;20462;-87
2022/09/20 06:02:20;;;;;;;3.10;0.60;;;7.30;99.90;;;;;;5013070;28;20414;-87
2022/09/20 06:05:10;;;;;;;3.13;0.53;;;7.40;99.90;;;;;;5011673;28;20528;-85
2022/09/20 06:07:48;;;;;;;3.33;1.03;;;7.40;99.90;;;;;;5012878;28;20462;-87
2022/09/20 06:10:31;;;;;;;2.33;0.70;;;7.50;99.90;;;;;;5012732;28;20495;-87
2022/09/20 06:13:21;;;;;;;2.70;0.93;;;7.60;99.90;;;;;;5012632;28;20441;-85
2022/09/20 06:16:00;;;;;;;1.23;0.87;;;7.80;99.90;;;;;;5012844;28;20870;-87
2022/09/20 06:18:48;;;;;;;3.60;1.10;;;7.90;99.90;;;;;;5011561;28;20561;-86
2022/09/20 06:21:40;;;;;;;2.00;0.97;;;8.00;99.90;;;;;;5013066;28;20412;-86
2022/09/20 06:24:24;;;;;;;2.50;0.83;;;8.10;99.90;;;;;;5013078;28;20413;-85
2022/09/20 06:26:54;;;;;;;3.63;1.33;;;8.40;99.90;;;;;;5012523;28;20769;-84
2022/09/20 06:29:28;;;;;;;3.70;1.53;;;8.60;99.90;;;;;;5011506;28;20496;-85
2022/09/20 06:31:54;;;;;;;4.93;1.87;;;9.40;99.90;;;;;;5012676;28;20418;-84
2022/09/20 06:34:19;;;;;;;3.40;1.87;;;11.90;99.90;;;;;;5011318;28;20423;-85
2022/09/20 06:42:47;;;;;;;2.90;0.93;;;16.50;1.00;;;;;;5015820;28;20462;-87
2022/09/20 06:45:15;;;;;;;3.33;0.67;;;17.30;99.90;;;;;;5014798;28;20950;-87
2022/09/20 06:47:40;;;;;;;2.13;0.30;;;17.50;1.00;;;;;;5016016;28;20419;-87
2022/09/20 06:50:14;;;;;;;1.83;0.30;;;17.60;99.90;;;;;;5015949;28;20493;-86
2022/09/20 06:52:41;;;;;;;1.33;0.57;;;17.70;36.00;;;;;;5014817;28;20182;-87
2022/09/20 06:55:27;;;;;;;3.20;0.57;;;17.80;87.80;;;;;;5016028;28;20420;-87
2022/09/20 06:57:53;;;;;;;0.97;0.20;;;18.30;1.00;;;;;;5016127;28;20517;-83
2022/09/20 07:00:22;;;;;;;1.30;0.33;;;18.50;71.20;;;;;;5015946;28;20496;-87
2022/09/20 07:02:47;;;;;;;1.90;0.83;;;18.70;1.00;;;;;;5016111;28;20260;-89
2022/09/20 07:05:20;;;;;;;1.53;0.40;;;18.70;1.00;;;;;;5014673;28;20876;-88
2022/09/20 07:07:46;;;;;;;2.30;0.37;;;19.00;1.00;;;;;;5015595;28;20224;-86
2022/09/20 07:10:13;;;;;;;2.20;0.43;;;19.40;99.90;;;;;;5015528;28;20500;-83
2022/09/20 07:12:39;;;;;;;1.27;0.43;;;19.30;99.90;;;;;;5015638;28;20417;-86
2022/09/20 07:15:06;;;;;;;1.80;0.73;;;19.30;99.90;;;;;;5014520;28;20962;-85
2022/09/20 07:17:32;;;;;;;2.27;0.30;;;19.90;99.90;;;;;;5015600;28;20233;-86
2022/09/20 07:19:58;;;;;;;1.00;0.50;;;20.10;99.90;;;;;;5015713;28;20412;-83
2022/09/20 07:22:26;;;;;;;4.20;0.70;;;20.10;99.90;;;;;;5015483;28;20425;-86
2022/09/20 07:24:52;;;;;;;1.23;0.30;;;20.40;99.90;;;;;;5015747;28;20406;-85
2022/09/20 07:27:18;;;;;;;1.67;0.47;;;20.10;99.90;;;;;;5013863;28;20501;-86
2022/09/20 07:29:44;;;;;;;1.47;0.33;;;20.00;99.90;;;;;;5015537;28;20501;-85
2022/09/20 07:32:14;;;;;;;3.10;0.50;;;20.40;1.10;;;;;;5015156;28;20469;-83
2022/09/20 07:34:42;;;;;;;2.60;0.40;;;20.10;99.90;;;;;;5015147;28;20859;-86
2022/09/20 07:37:08;;;;;;;3.30;1.23;;;20.00;99.90;;;;;;5015113;28;20457;-83
2022/09/20 07:39:33;;;;;;;1.10;0.73;;;20.00;99.90;;;;;;5014951;28;20414;-82
2022/09/20 07:42:00;;;;;;;1.33;0.40;;;20.10;99.90;;;;;;5013262;28;20529;-82
2022/09/20 07:44:26;;;;;;;3.90;0.30;;;19.90;99.90;;;;;;5014692;28;20691;-82
2022/09/20 07:46:58;;;;;;;5.50;0.63;;;19.80;99.90;;;;;;5013628;28;20440;-83
2022/09/20 07:49:25;;;;;;;5.13;0.50;;;20.00;99.90;;;;;;5014250;28;20414;-82
2022/09/20 07:51:52;;;;;;;2.67;0.50;;;20.20;99.90;;;;;;5014853;28;20504;-83
2022/09/20 07:54:18;;;;;;;5.53;0.40;;;20.70;99.90;;;;;;5014724;28;20410;-82
2022/09/20 07:56:44;;;;;;;2.50;0.30;;;20.60;99.90;;;;;;5014172;28;20415;-83
2022/09/20 07:59:10;;;;;;;2.63;0.57;;;20.80;99.90;;;;;;5013297;28;20927;-83
2022/09/20 08:01:37;;;;;;;2.73;0.50;;;21.20;99.90;;;;;;5013295;28;20441;-83
2022/09/20 08:04:05;;;;;;;2.70;0.83;;;21.30;99.90;;;;;;5014646;28;20411;-83
2022/09/20 08:06:31;;;;;;;2.60;0.53;;;21.20;99.90;;;;;;5013287;28;20426;-84
2022/09/20 08:08:56;;;;;;;2.80;0.83;;;21.50;99.90;;;;;;5014339;28;20428;-83
2022/09/20 08:11:24;;;;;;;2.80;1.00;;;21.50;99.90;;;;;;5014070;28;20171;-83
2022/09/20 08:13:52;;;;;;;1.87;0.50;;;21.80;99.90;;;;;;5014462;28;20214;-83
2022/09/20 08:16:19;;;;;;;1.50;0.57;;;21.60;99.90;;;;;;5014301;28;20714;-83
2022/09/20 08:18:50;;;;;;;2.50;0.87;;;20.90;99.90;;;;;;5014358;28;20421;-85
2022/09/20 08:21:16;;;;;;;1.13;0.50;;;21.60;99.90;;;;;;5014170;28;20468;-81
2022/09/20 08:23:44;;;;;;;1.43;0.47;;;20.20;1.00;;;;;;5014241;28;20783;-82
2022/09/20 08:26:11;;;;;;;1.53;0.30;;;21.70;99.90;;;;;;5013835;28;20459;-83
2022/09/20 08:28:38;;;;;;;4.33;0.60;;;19.40;1.00;;;;;;5013126;28;20601;-83
2022/09/20 08:31:24;;;;;;;6.63;0.57;;;20.60;99.90;;;;;;5014091;28;20548;-81
2022/09/20 08:33:51;;;;;;;2.33;0.40;;;18.80;45.80;;;;;;5014091;28;20762;-83
2022/09/20 08:36:20;;;;;;;2.83;0.40;;;20.30;99.90;;;;;;5012687;28;20509;-82
2022/09/20 08:38:45;;;;;;;3.70;0.40;;;21.30;99.90;;;;;;5013986;28;20873;-82
2022/09/20 08:41:18;;;;;;;3.87;0.77;;;22.20;99.90;;;;;;5013589;28;20478;-82
2022/09/20 08:43:49;;;;;;;3.77;0.50;;;22.20;99.90;;;;;;5013689;28;20223;-82
2022/09/20 08:46:18;;;;;;;1.97;0.50;;;22.50;99.90;;;;;;5013760;28;20457;-82
2022/09/20 08:48:45;;;;;;;2.20;0.40;;;23.00;99.90;;;;;;5012371;28;20543;-84
2022/09/20 08:51:14;;;;;;;1.90;0.23;;;22.90;81.10;;;;;;5013756;28;20413;-83
2022/09/20 08:53:46;;;;;;;4.17;0.40;;;23.20;82.70;;;;;;5013687;28;20913;-85
2022/09/20 08:56:13;;;;;;;3.20;0.60;;;22.80;58.10;;;;;;5012050;28;20437;-83
2022/09/20 08:58:38;;;;;;;4.53;1.03;;;22.60;43.60;;;;;;5012267;28;20958;-85
2022/09/20 09:01:05;;;;;;;3.83;0.33;;;22.20;59.20;;;;;;5011583;28;20450;-85
2022/09/20 09:03:31;;;;;;;5.33;0.70;;;21.40;99.90;;;;;;5012370;28;20178;-84
2022/09/20 09:05:57;;;;;;;1.60;0.30;;;22.30;80.50;;;;;;5013523;28;20428;-84
2022/09/20 09:08:28;;;;;;;3.10;0.30;;;22.90;93.80;;;;;;5013327;28;20492;-83
2022/09/20 09:10:57;;;;;;;3.43;0.30;;;23.90;49.70;;;;;;5011907;28;20417;-83
2022/09/20 09:13:36;;;;;;;6.00;0.60;;;23.60;45.40;;;;;;5023582;28;20809;-83
2022/09/20 09:16:10;;;;;;;1.50;0.27;;;23.70;53.30;;;;;;5020513;28;20824;-80
2022/09/20 09:18:41;;;;;;;2.33;0.60;;;22.70;70.70;;;;;;5012478;28;20410;-85
2022/09/20 09:21:15;;;;;;;2.00;0.40;;;23.60;54.00;;;;;;5012556;28;20466;-85
2022/09/20 09:24:00;;;;;;;2.23;0.30;;;24.10;41.70;;;;;;5011053;28;20948;-84
2022/09/20 09:26:26;;;;;;;3.33;0.70;;;24.60;47.00;;;;;;5011997;28;20484;-80
2022/09/20 09:29:18;;;;;;;4.17;0.50;;;23.30;32.60;;;;;;5012203;28;20469;-80
2022/09/20 09:31:53;;;;;;;4.17;0.70;;;23.20;51.50;;;;;;5012156;28;20409;-78
2022/09/20 09:34:37;;;;;;;1.20;0.37;;;23.40;33.10;;;;;;5012217;28;20813;-82
2022/09/20 09:37:03;;;;;;;1.57;0.43;;;23.80;56.90;;;;;;5012161;28;20407;-81
2022/09/20 09:39:34;;;;;;;1.53;0.20;;;24.20;31.50;;;;;;5011988;28;20437;-81
2022/09/20 09:42:18;;;;;;;1.67;0.20;;;24.30;25.10;;;;;;5011772;28;20179;-81
2022/09/20 09:44:49;;;;;;;2.77;0.53;;;24.00;24.40;;;;;;5010745;28;20825;-82
2022/09/20 09:47:30;;;;;;;1.20;0.33;;;24.50;23.10;;;;;;5012203;28;20982;-86
2022/09/20 09:49:58;;;;;;;2.10;0.60;;;24.80;22.80;;;;;;5010773;28;20781;-82
2022/09/20 09:52:26;;;;;;;4.33;1.00;;;24.50;12.60;;;;;;5012083;28;20425;-81
2022/09/20 09:54:59;;;;;;;2.70;0.60;;;24.40;15.90;;;;;;5011760;28;20410;-80
2022/09/20 09:57:54;;;;;;;1.97;0.30;;;24.00;10.80;;;;;;5012287;28;20418;-81
2022/09/20 10:00:25;;;;;;;4.53;0.50;;;22.50;1.00;;;;;;5012508;28;20771;-81
2022/09/20 10:02:54;;;;;;;2.87;0.53;;;20.90;21.70;;;;;;5012683;28;20425;-81
2022/09/20 10:05:28;;;;;;;1.23;0.30;;;21.60;47.90;;;;;;5011112;28;20464;-84
2022/09/20 10:08:18;;;;;;;2.50;0.60;;;22.80;23.20;;;;;;5010851;28;20480;-81
2022/09/20 10:11:21;;;;;;;4.23;0.43;;;23.80;43.20;;;;;;5011544;28;20456;-82
2022/09/20 10:14:24;;;;;;;2.10;0.20;;;23.70;24.60;;;;;;5014983;28;20444;-79
2022/09/20 10:16:55;;;;;;;4.27;1.50;;;23.90;10.50;;;;;;5015642;28;20410;-78
2022/09/20 10:20:06;;;;;;;2.47;0.60;;;24.40;29.60;;;;;;5015641;28;20414;-79
2022/09/20 10:22:51;;;;;;;3.50;0.50;;;24.30;8.70;;;;;;5012493;28;20454;-79
2022/09/20 10:25:38;;;;;;;1.57;0.30;;;23.80;7.70;;;;;;5015213;28;20456;-80
2022/09/20 10:28:16;;;;;;;2.20;0.30;;;23.90;25.00;;;;;;5014419;28;20469;-79
2022/09/20 10:31:12;;;;;;;2.67;0.30;;;24.20;7.30;;;;;;5015298;28;20413;-80
2022/09/20 10:34:19;;;;;;;3.07;0.33;;;24.20;2.70;;;;;;5005846;28;20444;-80
2022/09/20 10:36:54;;;;;;;2.77;0.30;;;24.00;1.00;;;;;;5015361;28;20417;-80
2022/09/20 10:39:25;;;;;;;0.90;0.20;;;24.70;7.10;;;;;;5015240;28;20500;-81
2022/09/20 10:45:05;;;;;;;4.20;0.30;;;24.40;4.30;;;;;;5015246;28;20573;-82
2022/09/20 10:47:55;;;;;;;2.63;1.10;;;24.60;2.60;;;;;;5014003;28;20453;-82
2022/09/20 10:50:42;;;;;;;3.00;0.57;;;23.80;1.60;;;;;;5015043;28;20539;-81
2022/09/20 10:53:32;;;;;;;3.30;0.40;;;23.80;1.00;;;;;;5014601;28;20933;-80
2022/09/20 10:56:11;;;;;;;1.23;0.30;;;24.50;17.00;;;;;;5010066;28;20466;-81
2022/09/20 10:59:00;;;;;;;1.63;0.33;;;23.80;1.00;;;;;;4995420;28;20498;-81
2022/09/20 11:01:46;;;;;;;4.37;0.87;;;24.40;1.00;;;;;;5007071;28;20508;-81
2022/09/20 11:04:31;;;;;;;2.10;0.20;;;23.50;1.00;;;;;;5014113;28;20430;-83
2022/09/20 11:07:18;;;;;;;2.93;0.60;;;21.40;1.00;;;;;;5013132;28;20805;-82
2022/09/20 11:09:51;;;;;;;2.57;0.43;;;20.70;98.90;;;;;;5015354;28;20422;-83
2022/09/20 11:12:37;;;;;;;1.47;0.50;;;19.50;99.90;;;;;;5012583;28;20422;-83
2022/09/20 11:15:14;;;;;;;0.93;0.30;;;18.60;99.90;;;;;;5015450;28;20418;-81
2022/09/20 11:18:00;;;;;;;1.50;0.50;;;19.70;99.90;;;;;;5015436;28;20824;-82
2022/09/20 11:20:31;;;;;;;1.43;0.43;;;22.00;14.70;;;;;;5015509;28;20433;-84
2022/09/20 11:23:19;;;;;;;2.70;0.50;;;20.10;47.90;;;;;;5015427;28;20418;-83
2022/09/20 11:26:03;;;;;;;1.70;0.30;;;18.90;99.90;;;;;;5014227;28;20893;-82
2022/09/20 11:28:36;;;;;;;1.37;0.40;;;18.00;99.90;;;;;;5015285;28;20473;-81
2022/09/20 11:31:12;;;;;;;3.40;0.47;;;17.80;43.10;;;;;;5015169;28;20761;-84
2022/09/20 11:33:48;;;;;;;2.73;0.40;;;19.00;9.40;;;;;;5015224;28;20417;-84
2022/09/20 11:36:23;;;;;;;3.00;0.60;;;21.20;99.90;;;;;;5015229;28;20925;-82
2022/09/20 11:38:53;;;;;;;2.93;0.40;;;22.40;65.90;;;;;;5015090;28;20424;-84
2022/09/20 11:41:27;;;;;;;1.60;0.20;;;23.30;20.00;;;;;;5014684;28;20771;-82
2022/09/20 11:43:58;;;;;;;1.73;0.40;;;20.80;17.60;;;;;;5014704;28;20501;-81
2022/09/20 11:46:30;;;;;;;1.57;0.30;;;19.40;99.90;;;;;;5014957;28;20402;-85
2022/09/20 11:49:01;;;;;;;2.07;0.87;;;18.30;99.90;;;;;;5014800;28;20481;-81
2022/09/20 11:52:01;;;;;;;5.30;0.70;;;19.70;99.90;;;;;;5014454;28;20413;-82
2022/09/20 11:54:59;;;;;;;2.30;0.30;;;21.20;29.30;;;;;;5014449;28;20414;-84
2022/09/20 11:57:27;;;;;;;3.93;0.90;;;22.10;28.50;;;;;;5014830;28;20560;-82
2022/09/20 11:59:56;;;;;;;2.23;0.37;;;22.60;19.60;;;;;;5014641;28;20453;-82
2022/09/20 12:02:35;;;;;;;0.70;0.47;;;22.80;34.90;;;;;;5014472;28;20410;-82
2022/09/20 12:05:04;;;;;;;1.93;0.30;;;23.00;13.50;;;;;;5014504;28;20410;-83
2022/09/20 12:07:39;;;;;;;2.20;0.30;;;23.10;11.40;;;;;;5014488;28;20453;-84
2022/09/20 12:10:27;;;;;;;2.13;0.20;;;23.10;5.00;;;;;;5014306;28;20425;-83
2022/09/20 12:12:59;;;;;;;4.57;0.67;;;23.00;1.00;;;;;;5014604;28;20414;-82
2022/09/20 12:15:38;;;;;;;2.10;0.30;;;23.20;1.00;;;;;;5014386;28;20422;-83
2022/09/20 12:18:27;;;;;;;2.53;0.33;;;21.80;1.00;;;;;;5014383;28;20425;-81
2022/09/20 12:21:00;;;;;;;2.70;0.40;;;22.50;3.90;;;;;;5014317;28;20473;-82
2022/09/20 12:23:41;;;;;;;1.30;0.40;;;23.10;6.90;;;;;;5013002;28;20465;-82
2022/09/20 12:26:21;;;;;;;1.07;0.30;;;23.40;10.60;;;;;;5013787;28;20418;-82
2022/09/20 12:28:49;;;;;;;1.50;0.50;;;23.70;6.40;;;;;;5014077;28;21051;-83
2022/09/20 12:31:18;;;;;;;0.90;0.53;;;23.30;1.00;;;;;;5014065;28;20476;-82
2022/09/20 12:34:02;;;;;;;1.10;0.30;;;21.10;1.00;;;;;;5014054;28;20953;-82
2022/09/20 12:36:33;;;;;;;4.00;0.67;;;19.40;20.00;;;;;;5013826;28;20497;-82
2022/09/20 12:39:12;;;;;;;2.63;0.40;;;19.30;53.70;;;;;;5014056;28;20417;-82
2022/09/20 12:42:08;;;;;;;4.83;0.23;;;20.70;34.90;;;;;;5013608;28;20410;-83
2022/09/20 12:44:59;;;;;;;1.63;0.30;;;21.60;2.30;;;;;;5013633;28;20454;-81
2022/09/20 12:47:29;;;;;;;1.27;0.20;;;22.50;5.00;;;;;;5013855;28;20466;-82
2022/09/20 12:52:55;;;;;;;1.67;0.33;;;22.40;1.00;;;;;;5014047;28;20413;-82
2022/09/20 12:55:51;;;;;;;1.20;0.50;;;22.30;1.00;;;;;;5013648;28;20476;-82
2022/09/20 12:58:22;;;;;;;1.00;0.40;;;22.40;1.00;;;;;;5011748;28;20793;-82
2022/09/20 13:00:59;;;;;;;2.13;0.30;;;22.10;1.00;;;;;;5013763;28;20910;-83
2022/09/20 13:03:35;;;;;;;2.43;0.37;;;21.70;1.00;;;;;;5013704;28;20422;-82
2022/09/20 13:06:07;;;;;;;1.70;0.30;;;21.60;1.00;;;;;;5013644;28;20422;-82
2022/09/20 13:08:59;;;;;;;1.13;0.30;;;21.30;1.00;;;;;;5013559;28;20469;-84
2022/09/20 13:11:51;;;;;;;1.47;0.30;;;20.90;1.00;;;;;;5013213;28;20418;-83
2022/09/20 13:14:24;;;;;;;1.50;0.20;;;20.90;12.70;;;;;;5013339;28;20414;-83
2022/09/20 13:17:01;;;;;;;1.27;0.47;;;20.60;1.00;;;;;;5013175;28;20960;-82
2022/09/20 13:19:36;;;;;;;1.73;0.20;;;20.70;1.00;;;;;;5013308;28;20418;-83
2022/09/20 13:22:16;;;;;;;2.03;0.40;;;20.60;1.00;;;;;;5008182;28;20502;-84
2022/09/20 13:24:45;;;;;;;0.63;0.20;;;20.60;1.00;;;;;;5003964;28;20410;-84
2022/09/20 13:27:35;;;;;;;1.20;0.30;;;20.60;1.00;;;;;;5012937;28;20483;-83
2022/09/20 13:30:16;;;;;;;2.07;0.30;;;20.40;1.00;;;;;;5013169;28;20450;-84
2022/09/20 13:32:42;;;;;;;2.47;0.40;;;20.40;1.00;;;;;;5013064;28;20402;-85
2022/09/20 13:35:22;;;;;;;1.57;0.20;;;20.40;1.00;;;;;;5012978;28;20882;-81
2022/09/20 13:37:57;;;;;;;3.83;0.70;;;20.20;1.00;;;;;;5012963;28;20169;-82
2022/09/20 13:40:24;;;;;;;2.60;0.50;;;20.00;1.00;;;;;;5012594;28;20921;-83
2022/09/20 13:42:51;;;;;;;3.80;0.30;;;19.90;17.50;;;;;;5012621;28;20450;-82
2022/09/20 13:45:19;;;;;;;2.00;0.30;;;19.60;4.00;;;;;;5012733;28;20414;-81
2022/09/20 13:47:50;;;;;;;1.50;0.30;;;19.20;13.00;;;;;;5013979;28;20465;-84
2022/09/20 13:50:46;;;;;;;2.33;0.40;;;18.80;39.90;;;;;;5016986;28;20437;-82
2022/09/20 13:53:17;;;;;;;1.63;0.37;;;18.20;99.90;;;;;;5004053;28;20436;-84
2022/09/20 13:55:44;;;;;;;3.17;0.20;;;17.80;99.90;;;;;;5016665;28;20458;-82
2022/09/20 13:58:31;;;;;;;4.87;0.37;;;18.10;99.90;;;;;;5014311;28;20459;-87
2022/09/20 14:01:00;;;;;;;2.00;0.27;;;18.40;45.10;;;;;;5016853;28;20431;-83
2022/09/20 14:03:27;;;;;;;1.83;0.23;;;18.40;36.60;;;;;;5013987;28;20412;-89
2022/09/20 14:05:59;;;;;;;3.10;0.40;;;18.30;2.70;;;;;;5016955;28;20419;-90
2022/09/20 14:08:36;;;;;;;4.33;0.20;;;18.30;11.30;;;;;;5016284;28;20479;-87
2022/09/20 14:11:10;;;;;;;1.23;0.20;;;18.40;29.80;;;;;;5017832;28;20434;-91